Terminal Aerodrome Forecast
Issued by NWS Nashville, TN

Current Version | Previous Version | Text Only | Print | Product List | Glossary On
Versions: 1 2 3 4 5 6 7 8 9 10 11 12 13 14 15 16
000
FTUS44 KOHX 231100
TAFBNA
TAF
KBNA 231140Z 2312/2412 18005KT P6SM SCT030 BKN150
     FM231800 22007KT P6SM VCTS BKN050CB
     FM240300 32005KT P6SM BKN050
     FM240800 32005KT 5SM -RA OVC030=

USA.gov is the U.S. government's official web portal to all federal, state and local government web resources and services.